KHIF

Hill AFB Airport

Ogden, Utah, USA
METAR KHIF 271058Z AUTO 00000KT 10SM BKN110 15/06 A2983 RMK AO2 SLP048 T01470057
Observed Flight Rules
May-27 @ 10:58 UTC (an hour ago) Visual Flight Rules
Visibility Clouds
10 miles
  • Broken at 11,000' AGL
Temperatures Readings
Current 15°C / 59°F
Dewpoint 6°C / 43°F
Humidity 55%
Altimeter 29.83" Hg
Pressure 1004.8 hPa
Elevation 1459
METAR KHIF 271058Z AUTO 00000KT 10SM BKN110 15/06 A2983 RMK AO2 SLP048 T01470057
Observed Flight Rules
May-27 @ 10:58 UTC
(an hour ago)
VFR
Clouds
  • Broken at 11,000' AGL
Temperature Dewpoint
15°C / 59°F 6°C / 43°F
Humidity Altimeter Pressure
55% 29.83" Hg 1004.8 hPa